createdAt,value
2022-08-12T00:00:53.688Z,53.00
2022-08-12T00:03:39.301Z,53.10
2022-08-12T00:06:26.029Z,53.00
2022-08-12T00:09:11.528Z,53.60
2022-08-12T00:11:58.660Z,53.00
2022-08-12T00:14:44.252Z,53.10
2022-08-12T00:17:30.591Z,53.70
2022-08-12T00:20:16.279Z,53.00
2022-08-12T00:23:02.678Z,53.00
2022-08-12T00:26:21.041Z,53.00
2022-08-12T00:29:05.537Z,53.00
2022-08-12T00:31:50.912Z,53.00
2022-08-12T00:34:36.998Z,53.00
2022-08-12T00:37:23.019Z,53.00
2022-08-12T00:40:11.406Z,53.00
2022-08-12T00:42:41.527Z,53.00
2022-08-12T00:45:13.182Z,53.00
2022-08-12T00:47:41.967Z,53.60
2022-08-12T00:50:17.833Z,53.00
2022-08-12T00:52:46.732Z,53.00
2022-08-12T00:55:16.211Z,53.00
2022-08-12T00:57:47.854Z,53.00
2022-08-12T01:00:19.595Z,53.00
2022-08-12T01:02:51.231Z,53.00
2022-08-12T01:05:38.242Z,53.00
2022-08-12T01:08:24.849Z,53.00
2022-08-12T01:11:12.756Z,53.00
2022-08-12T01:13:42.984Z,53.00
2022-08-12T01:16:12.496Z,53.00
2022-08-12T01:18:42.089Z,53.00
2022-08-12T01:21:16.768Z,53.00
2022-08-12T01:24:30.458Z,53.00
2022-08-12T01:27:02.472Z,53.00
2022-08-12T01:29:32.509Z,53.00
2022-08-12T01:32:06.206Z,53.00
2022-08-12T01:34:38.575Z,53.00
2022-08-12T01:37:10.077Z,52.90
2022-08-12T01:40:34.880Z,53.00
2022-08-12T01:42:40.661Z,53.00
2022-08-12T01:45:12.276Z,53.00
2022-08-12T01:47:53.957Z,53.00
2022-08-12T01:50:27.385Z,52.90
2022-08-12T01:53:05.293Z,53.00
2022-08-12T01:55:37.170Z,53.00
2022-08-12T01:58:19.415Z,53.00
2022-08-12T02:00:59.022Z,53.00
2022-08-12T02:04:07.667Z,53.00
2022-08-12T02:07:07.090Z,53.00
2022-08-12T02:10:50.903Z,53.00
2022-08-12T02:13:07.461Z,52.90
2022-08-12T02:15:46.194Z,53.00
2022-08-12T02:18:25.961Z,53.00
2022-08-12T02:21:01.212Z,52.90
2022-08-12T02:23:30.321Z,52.90
2022-08-12T02:26:02.709Z,52.90
2022-08-12T02:28:31.540Z,53.00
2022-08-12T02:31:05.768Z,53.00
2022-08-12T02:33:34.284Z,52.90
2022-08-12T02:36:03.250Z,53.00
2022-08-12T02:38:32.155Z,53.00
2022-08-12T02:41:03.260Z,53.00
2022-08-12T02:43:37.795Z,52.90
2022-08-12T02:46:13.418Z,52.90
2022-08-12T02:48:47.862Z,52.90
2022-08-12T02:51:20.476Z,52.90
2022-08-12T02:54:05.732Z,52.90
2022-08-12T02:56:37.648Z,53.00
2022-08-12T02:59:06.759Z,52.90
2022-08-12T03:01:47.614Z,52.90
2022-08-12T03:04:24.362Z,52.90
2022-08-12T03:07:01.228Z,53.00
2022-08-12T03:09:35.839Z,52.90
2022-08-12T03:12:24.889Z,53.00
2022-08-12T03:14:55.078Z,52.90
2022-08-12T03:17:30.394Z,52.90
2022-08-12T03:20:10.315Z,53.00
2022-08-12T03:22:41.033Z,53.00
2022-08-12T03:25:17.186Z,52.90
2022-08-12T03:27:51.509Z,52.90
2022-08-12T03:30:20.586Z,52.90
2022-08-12T03:32:52.569Z,52.90
2022-08-12T03:35:40.287Z,53.00
2022-08-12T03:38:16.003Z,53.00
2022-08-12T03:41:15.220Z,52.90
2022-08-12T03:44:19.834Z,52.90
2022-08-12T03:47:19.370Z,52.90
2022-08-12T03:50:07.586Z,52.90
2022-08-12T03:52:53.167Z,53.00
2022-08-12T03:55:39.109Z,52.90
2022-08-12T03:58:25.656Z,52.90
2022-08-12T04:00:53.721Z,52.90
2022-08-12T04:03:39.464Z,53.00
2022-08-12T04:06:11.357Z,52.90
2022-08-12T04:08:40.696Z,53.00
2022-08-12T04:11:31.695Z,52.90
2022-08-12T04:14:07.150Z,52.90
2022-08-12T04:16:36.351Z,53.00
2022-08-12T04:19:05.164Z,52.90
2022-08-12T04:21:36.206Z,52.90
2022-08-12T04:24:06.289Z,52.90
2022-08-12T04:26:35.760Z,52.90
2022-08-12T04:29:04.357Z,52.90
2022-08-12T04:31:33.025Z,52.90
2022-08-12T04:34:01.268Z,53.00
2022-08-12T04:36:30.159Z,52.90
2022-08-12T04:39:00.327Z,52.90
2022-08-12T04:41:29.108Z,52.90
2022-08-12T04:44:02.095Z,52.90
2022-08-12T04:46:30.866Z,52.90
2022-08-12T04:49:03.249Z,52.90
2022-08-12T04:51:31.729Z,52.90
2022-08-12T04:54:02.215Z,53.00
2022-08-12T04:56:30.530Z,52.90
2022-08-12T04:59:03.948Z,52.90
2022-08-12T05:01:32.740Z,52.90
2022-08-12T05:04:02.660Z,53.00
2022-08-12T05:06:30.677Z,52.90
2022-08-12T05:09:00.830Z,52.90
2022-08-12T05:11:29.537Z,53.00
2022-08-12T05:14:00.477Z,53.00
2022-08-12T05:16:31.145Z,53.00
2022-08-12T05:19:02.622Z,52.90
2022-08-12T05:21:30.970Z,52.90
2022-08-12T05:24:00.947Z,52.90
2022-08-12T05:26:29.424Z,53.50
2022-08-12T05:28:57.503Z,52.90
2022-08-12T05:31:41.712Z,53.00
2022-08-12T05:34:15.522Z,52.80
2022-08-12T05:36:44.769Z,52.80
2022-08-12T05:39:14.112Z,52.80
2022-08-12T05:41:42.193Z,52.80
2022-08-12T05:44:12.651Z,52.90
2022-08-12T05:46:41.113Z,52.90
2022-08-12T05:49:09.506Z,52.90
2022-08-12T05:51:41.194Z,52.90
2022-08-12T05:54:11.594Z,52.80
2022-08-12T05:56:41.964Z,52.90
2022-08-12T05:59:11.940Z,52.90
2022-08-12T06:02:09.138Z,52.90
2022-08-12T06:04:28.785Z,52.90
2022-08-12T06:06:56.786Z,52.90
2022-08-12T06:09:26.346Z,52.80
2022-08-12T06:12:06.148Z,52.90
2022-08-12T06:14:37.038Z,52.90
2022-08-12T06:17:08.585Z,52.90
2022-08-12T06:20:22.847Z,52.90
2022-08-12T06:22:26.723Z,52.90
2022-08-12T06:24:54.696Z,52.90
2022-08-12T06:27:23.972Z,53.50
2022-08-12T06:30:08.847Z,52.90
2022-08-12T06:32:52.004Z,52.90
2022-08-12T06:35:47.893Z,52.80
2022-08-12T06:38:17.500Z,52.80
2022-08-12T06:41:03.967Z,52.80
2022-08-12T06:44:07.084Z,52.80
2022-08-12T06:46:23.030Z,52.80
2022-08-12T06:48:57.156Z,52.90
2022-08-12T06:51:26.111Z,52.80
2022-08-12T06:53:55.829Z,52.80
2022-08-12T06:56:39.814Z,52.90
2022-08-12T06:59:15.533Z,52.90
2022-08-12T07:01:49.641Z,52.90
2022-08-12T07:04:39.841Z,52.90
2022-08-12T07:07:08.747Z,52.90
2022-08-12T07:10:04.376Z,52.90
2022-08-12T07:12:28.028Z,52.90
2022-08-12T07:14:58.441Z,52.90
2022-08-12T07:17:31.566Z,52.90
2022-08-12T07:20:04.162Z,52.90
2022-08-12T07:22:33.326Z,52.90
2022-08-12T07:25:18.583Z,52.80
2022-08-12T07:27:46.719Z,52.90
2022-08-12T07:30:16.109Z,52.90
2022-08-12T07:32:51.447Z,52.90
2022-08-12T07:35:20.272Z,52.80
2022-08-12T07:37:50.213Z,52.90
2022-08-12T07:40:18.696Z,52.90
2022-08-12T07:42:47.428Z,52.90
2022-08-12T07:45:16.912Z,52.80
2022-08-12T07:47:44.923Z,52.70
2022-08-12T07:50:13.879Z,52.70
2022-08-12T07:52:45.294Z,52.80
2022-08-12T07:55:14.831Z,52.80
2022-08-12T07:57:55.830Z,52.70
2022-08-12T08:00:26.082Z,52.70
2022-08-12T08:02:54.502Z,52.80
2022-08-12T08:05:23.875Z,52.80
2022-08-12T08:07:53.263Z,52.80
2022-08-12T08:10:21.472Z,52.80
2022-08-12T08:12:54.684Z,52.80
2022-08-12T08:15:44.530Z,52.70
2022-08-12T08:18:26.593Z,52.80
2022-08-12T08:20:56.385Z,52.80
2022-08-12T08:23:46.727Z,52.80
2022-08-12T08:26:25.804Z,52.80
2022-08-12T08:28:53.916Z,52.80
2022-08-12T08:31:23.198Z,52.80
2022-08-12T08:34:04.812Z,52.80
2022-08-12T08:36:38.956Z,53.40
2022-08-12T08:39:07.878Z,52.90
2022-08-12T08:42:17.580Z,52.80
2022-08-12T08:44:41.447Z,52.80
2022-08-12T08:47:12.612Z,52.90
2022-08-12T08:49:41.212Z,52.80
2022-08-12T08:52:10.835Z,52.80
2022-08-12T08:54:40.479Z,53.00
2022-08-12T08:57:09.174Z,52.80
2022-08-12T08:59:37.245Z,52.90
2022-08-12T09:02:07.503Z,53.00
2022-08-12T09:05:13.272Z,52.90
2022-08-12T09:10:30.439Z,52.90
2022-08-12T09:13:23.397Z,53.00
2022-08-12T09:15:57.710Z,52.90
2022-08-12T09:18:33.696Z,52.90
2022-08-12T09:21:03.798Z,52.90
2022-08-12T09:24:01.212Z,52.90
2022-08-12T09:26:22.839Z,53.00
2022-08-12T09:28:56.644Z,52.90
2022-08-12T09:32:05.858Z,52.90
2022-08-12T09:34:28.975Z,52.90
2022-08-12T09:37:20.159Z,53.00
2022-08-12T09:40:02.413Z,52.90
2022-08-12T09:43:15.326Z,52.90
2022-08-12T09:46:20.663Z,52.90
2022-08-12T09:48:36.320Z,53.00
2022-08-12T09:51:11.005Z,53.00
2022-08-12T09:54:08.332Z,53.00
2022-08-12T09:57:00.985Z,52.90
2022-08-12T10:00:17.666Z,52.90
2022-08-12T10:02:44.263Z,53.00
2022-08-12T10:05:00.549Z,53.60
2022-08-12T10:07:39.422Z,53.00
2022-08-12T10:10:25.221Z,53.00
2022-08-12T10:13:35.110Z,53.00
2022-08-12T10:16:06.288Z,53.00
2022-08-12T10:18:37.342Z,53.00
2022-08-12T10:21:36.388Z,53.00
2022-08-12T10:24:07.514Z,53.00
2022-08-12T10:26:55.771Z,53.00
2022-08-12T10:30:03.784Z,53.00
2022-08-12T10:32:44.243Z,53.00
2022-08-12T10:35:15.992Z,53.10
2022-08-12T10:38:34.847Z,53.00
2022-08-12T10:40:54.534Z,53.00
2022-08-12T10:43:55.466Z,53.10
2022-08-12T10:46:31.319Z,53.00
2022-08-12T10:49:05.347Z,53.10
2022-08-12T10:52:04.230Z,53.10
2022-08-12T10:54:26.129Z,53.00
2022-08-12T10:56:56.165Z,53.00
2022-08-12T10:59:58.174Z,53.10
2022-08-12T11:04:26.005Z,53.10
2022-08-12T11:07:02.376Z,53.10
2022-08-12T11:08:36.956Z,53.10
2022-08-12T11:10:39.071Z,53.10
2022-08-12T11:13:09.299Z,53.10
2022-08-12T11:16:18.862Z,53.10
2022-08-12T11:18:26.708Z,53.00
2022-08-12T11:20:57.931Z,53.10
2022-08-12T11:23:36.160Z,53.10
2022-08-12T11:26:07.849Z,53.10
2022-08-12T11:28:38.086Z,53.10
2022-08-12T11:31:14.306Z,53.10
2022-08-12T11:34:06.770Z,53.10
2022-08-12T11:36:31.061Z,53.10
2022-08-12T11:39:05.092Z,53.10
2022-08-12T11:41:34.551Z,53.10
2022-08-12T11:44:29.180Z,53.10
2022-08-12T11:46:53.994Z,53.10
2022-08-12T11:49:31.319Z,53.10
2022-08-12T11:52:02.053Z,53.10
2022-08-12T11:54:30.954Z,53.00
2022-08-12T11:57:02.055Z,53.10
2022-08-12T12:02:21.597Z,53.10
2022-08-12T12:04:52.664Z,53.10
2022-08-12T12:07:34.001Z,53.00
2022-08-12T12:10:11.476Z,53.10
2022-08-12T12:12:41.537Z,53.10
2022-08-12T12:15:25.049Z,53.10
2022-08-12T12:17:56.187Z,53.10
2022-08-12T12:20:26.059Z,53.10
2022-08-12T12:22:55.698Z,53.10
2022-08-12T12:25:59.696Z,53.10
2022-08-12T12:28:37.393Z,53.10
2022-08-12T12:31:00.156Z,53.80
2022-08-12T12:33:57.052Z,53.80
2022-08-12T12:36:24.047Z,53.10
2022-08-12T12:38:57.277Z,53.10
2022-08-12T12:42:40.596Z,53.10
2022-08-12T12:44:13.357Z,53.10
2022-08-12T12:46:58.301Z,53.10
2022-08-12T12:49:27.656Z,53.10
2022-08-12T12:52:18.602Z,53.00
2022-08-12T12:54:52.645Z,53.00
2022-08-12T12:57:35.852Z,53.00
2022-08-12T13:00:16.564Z,53.00
2022-08-12T13:02:53.639Z,53.00
2022-08-12T13:05:27.836Z,53.00
2022-08-12T13:08:01.086Z,53.00
2022-08-12T13:10:36.564Z,53.00
2022-08-12T13:14:07.707Z,53.10
2022-08-12T13:15:59.363Z,53.10
2022-08-12T13:18:28.844Z,53.10
2022-08-12T13:20:59.371Z,53.00
2022-08-12T13:23:37.109Z,53.00
2022-08-12T13:26:07.626Z,53.10
2022-08-12T13:28:44.619Z,53.10
2022-08-12T13:31:17.735Z,53.10
2022-08-12T13:34:32.984Z,53.10
2022-08-12T13:36:36.895Z,53.10
2022-08-12T13:39:07.191Z,53.10
2022-08-12T13:41:35.887Z,53.10
2022-08-12T13:44:05.868Z,53.10
2022-08-12T13:46:34.768Z,53.00
2022-08-12T13:49:04.880Z,52.90
2022-08-12T13:51:41.080Z,52.90
2022-08-12T13:54:13.987Z,52.90
2022-08-12T13:56:42.131Z,53.00
2022-08-12T13:59:24.502Z,53.00
2022-08-12T14:01:54.369Z,53.10
2022-08-12T14:04:24.969Z,53.10
2022-08-12T14:06:53.960Z,53.10
2022-08-12T14:09:23.225Z,53.10
2022-08-12T14:11:59.605Z,53.00
2022-08-12T14:14:31.432Z,53.10
2022-08-12T14:17:05.553Z,53.10
2022-08-12T14:19:46.115Z,53.00
2022-08-12T14:22:20.798Z,53.10
2022-08-12T14:24:55.735Z,53.10
2022-08-12T14:28:03.532Z,53.20
2022-08-12T14:30:28.938Z,53.20
2022-08-12T14:32:57.724Z,53.10
2022-08-12T14:35:25.648Z,53.10
2022-08-12T14:37:58.150Z,53.10
2022-08-12T14:40:29.566Z,53.10
2022-08-12T14:42:59.022Z,53.10
2022-08-12T14:45:44.817Z,53.10
2022-08-12T14:48:16.636Z,53.10
2022-08-12T14:52:16.161Z,53.10
2022-08-12T14:59:57.617Z,53.10
2022-08-12T15:02:20.399Z,53.20
2022-08-12T15:04:52.254Z,53.20
2022-08-12T15:07:43.650Z,53.20
2022-08-12T15:10:09.294Z,53.10
2022-08-12T15:12:40.374Z,53.10
2022-08-12T15:15:10.584Z,53.10
2022-08-12T15:17:39.861Z,53.10
2022-08-12T15:20:31.567Z,53.10
2022-08-12T15:22:57.878Z,53.10
2022-08-12T15:25:26.138Z,53.10
2022-08-12T15:28:04.457Z,53.10
2022-08-12T15:30:37.251Z,53.20
2022-08-12T15:33:12.865Z,53.10
2022-08-12T15:35:52.152Z,53.10
2022-08-12T15:38:25.074Z,53.10
2022-08-12T15:40:54.888Z,53.20
2022-08-12T15:43:35.548Z,53.20
2022-08-12T15:46:15.566Z,53.20
2022-08-12T15:48:46.852Z,53.20
2022-08-12T15:51:57.705Z,53.20
2022-08-12T15:54:30.823Z,53.20
2022-08-12T15:57:03.413Z,53.20
2022-08-12T16:00:00.694Z,53.20
2022-08-12T16:02:21.174Z,53.20
2022-08-12T16:04:50.306Z,53.20
2022-08-12T16:07:30.238Z,53.20
2022-08-12T16:10:06.634Z,53.20
2022-08-12T16:12:43.741Z,53.20
2022-08-12T16:15:26.752Z,53.20
2022-08-12T16:18:14.813Z,53.20
2022-08-12T16:20:47.205Z,53.20
2022-08-12T16:23:36.140Z,53.20
2022-08-12T16:26:15.346Z,53.20
2022-08-12T16:28:49.375Z,53.20
2022-08-12T16:31:23.452Z,53.20
2022-08-12T16:33:59.391Z,53.20
2022-08-12T16:36:29.967Z,53.20
2022-08-12T16:39:01.227Z,53.20
2022-08-12T16:41:39.665Z,53.20
2022-08-12T16:44:08.685Z,53.20
2022-08-12T16:46:38.419Z,53.80
2022-08-12T16:49:09.061Z,53.20
2022-08-12T16:51:47.229Z,53.20
2022-08-12T16:54:17.086Z,53.20
2022-08-12T16:56:54.669Z,53.80
2022-08-12T16:59:26.278Z,53.20
2022-08-12T17:02:00.765Z,53.20
2022-08-12T17:04:29.062Z,53.20
2022-08-12T17:06:56.996Z,53.20
2022-08-12T17:09:26.106Z,53.20
2022-08-12T17:12:02.273Z,53.20
2022-08-12T17:14:36.229Z,53.20
2022-08-12T17:17:05.782Z,53.20
2022-08-12T17:20:29.895Z,53.20
2022-08-12T17:22:38.378Z,53.20
2022-08-12T17:25:14.825Z,53.20
2022-08-12T17:27:46.256Z,53.20
2022-08-12T17:30:15.075Z,53.20
2022-08-12T17:32:53.375Z,53.20
2022-08-12T17:35:37.060Z,53.20
2022-08-12T17:38:11.627Z,53.30
2022-08-12T17:40:40.979Z,53.20
2022-08-12T17:43:51.844Z,53.20
2022-08-12T17:45:59.770Z,53.20
2022-08-12T17:48:34.286Z,53.20
2022-08-12T17:51:07.012Z,53.20
2022-08-12T17:54:05.531Z,53.20
2022-08-12T17:56:32.016Z,53.20
2022-08-12T17:59:01.282Z,53.20
2022-08-12T18:01:30.039Z,53.20
2022-08-12T18:04:23.254Z,53.20
2022-08-12T18:06:53.869Z,53.20
2022-08-12T18:09:31.976Z,53.20
2022-08-12T18:12:24.644Z,53.20
2022-08-12T18:14:56.587Z,53.20
2022-08-12T18:17:27.756Z,53.30
2022-08-12T18:20:06.994Z,53.20
2022-08-12T18:22:38.716Z,53.20
2022-08-12T18:26:12.930Z,53.20
2022-08-12T18:28:15.310Z,53.30
2022-08-12T18:30:45.384Z,53.20
2022-08-12T18:33:24.929Z,53.30
2022-08-12T18:35:56.704Z,53.20
2022-08-12T18:38:26.907Z,53.20
2022-08-12T18:41:21.629Z,53.20
2022-08-12T18:44:03.920Z,53.20
2022-08-12T18:46:38.679Z,53.20
2022-08-12T18:49:17.686Z,53.20
2022-08-12T18:51:55.616Z,53.30
2022-08-12T18:54:33.992Z,53.30
2022-08-12T18:57:04.978Z,53.20
2022-08-12T19:00:00.330Z,53.30
2022-08-12T19:02:23.371Z,53.20
2022-08-12T19:04:53.264Z,53.20
2022-08-12T19:07:25.162Z,53.30
2022-08-12T19:10:00.104Z,53.30
2022-08-12T19:12:57.595Z,53.30
2022-08-12T19:15:27.042Z,53.20
2022-08-12T19:18:02.881Z,53.20
2022-08-12T19:20:32.803Z,53.20
2022-08-12T19:23:08.036Z,53.30
2022-08-12T19:26:01.206Z,53.20
2022-08-12T19:28:34.635Z,53.30
2022-08-12T19:31:56.131Z,53.30
2022-08-12T19:37:17.056Z,53.30
2022-08-12T19:40:10.034Z,53.30
2022-08-12T19:42:40.071Z,53.30
2022-08-12T19:45:12.308Z,53.30
2022-08-12T19:47:44.693Z,53.30
2022-08-12T19:50:13.596Z,53.20
2022-08-12T19:52:54.759Z,53.30
2022-08-12T19:55:27.149Z,53.30
2022-08-12T19:58:01.505Z,53.30
2022-08-12T20:00:34.805Z,53.30
2022-08-12T20:03:04.409Z,53.30
2022-08-12T20:06:04.701Z,53.30
2022-08-12T20:08:32.838Z,53.30
2022-08-12T20:12:09.983Z,53.30
2022-08-12T20:14:00.972Z,53.30
2022-08-12T20:17:01.597Z,53.20
2022-08-12T20:19:28.476Z,53.20
2022-08-12T20:22:16.733Z,53.20
2022-08-12T20:24:55.305Z,53.20
2022-08-12T20:28:02.772Z,53.30
2022-08-12T20:30:16.906Z,53.20
2022-08-12T20:32:53.844Z,53.30
2022-08-12T20:35:24.604Z,53.20
2022-08-12T20:38:07.696Z,53.20
2022-08-12T20:40:42.209Z,53.90
2022-08-12T20:43:19.141Z,53.20
2022-08-12T20:45:57.383Z,53.20
2022-08-12T20:48:29.480Z,53.20
2022-08-12T20:50:58.050Z,53.20
2022-08-12T20:53:57.927Z,53.20
2022-08-12T20:56:30.359Z,53.20
2022-08-12T20:59:02.267Z,53.20
2022-08-12T21:01:46.013Z,53.20
2022-08-12T21:04:34.974Z,53.20
2022-08-12T21:07:08.997Z,53.20
2022-08-12T21:09:41.471Z,53.10
2022-08-12T21:12:28.284Z,53.20
2022-08-12T21:15:23.565Z,53.20
2022-08-12T21:18:10.979Z,53.20
2022-08-12T21:20:50.035Z,53.20
2022-08-12T21:23:21.047Z,53.20
2022-08-12T21:25:51.174Z,53.20
2022-08-12T21:28:20.557Z,53.20
2022-08-12T21:31:11.611Z,53.10
2022-08-12T21:34:06.351Z,53.10
2022-08-12T21:36:34.459Z,53.10
2022-08-12T21:39:18.026Z,53.10
2022-08-12T21:41:50.054Z,53.10
2022-08-12T21:44:24.394Z,53.20
2022-08-12T21:47:20.233Z,53.10
2022-08-12T21:50:02.512Z,53.10
2022-08-12T21:52:35.619Z,53.10
2022-08-12T21:55:08.547Z,53.10
2022-08-12T21:57:53.179Z,53.10
2022-08-12T22:00:31.592Z,53.10
2022-08-12T22:04:01.473Z,53.10
2022-08-12T22:06:26.233Z,53.10
2022-08-12T22:09:02.326Z,53.10
2022-08-12T22:11:42.156Z,53.10
2022-08-12T22:14:17.849Z,53.10
2022-08-12T22:16:50.359Z,53.10
2022-08-12T22:19:21.071Z,53.10
2022-08-12T22:21:53.051Z,53.00
2022-08-12T22:24:26.859Z,53.10
2022-08-12T22:26:57.961Z,53.10
2022-08-12T22:29:43.333Z,53.10
2022-08-12T22:32:12.059Z,53.00
2022-08-12T22:34:41.530Z,53.00
2022-08-12T22:37:11.159Z,53.00
2022-08-12T22:39:49.072Z,53.00
2022-08-12T22:42:35.196Z,53.10
2022-08-12T22:45:23.120Z,53.10
2022-08-12T22:47:55.145Z,53.10
2022-08-12T22:50:29.453Z,53.70
2022-08-12T22:53:14.953Z,53.00
2022-08-12T22:56:00.258Z,53.00
2022-08-12T22:58:35.218Z,53.00
2022-08-12T23:01:03.685Z,53.00
2022-08-12T23:03:48.930Z,53.00
2022-08-12T23:06:21.318Z,53.00
2022-08-12T23:08:49.903Z,53.00
2022-08-12T23:11:23.745Z,53.00
2022-08-12T23:13:55.084Z,53.00
2022-08-12T23:16:29.352Z,53.00
2022-08-12T23:19:01.599Z,53.00
2022-08-12T23:22:04.977Z,53.00
2022-08-12T23:24:30.692Z,53.00
2022-08-12T23:27:18.309Z,53.00
2022-08-12T23:30:16.671Z,53.00
2022-08-12T23:32:37.106Z,53.00
2022-08-12T23:35:06.936Z,53.00
2022-08-12T23:37:46.591Z,53.00
2022-08-12T23:40:22.245Z,53.00
2022-08-12T23:42:54.123Z,53.00
2022-08-12T23:45:31.348Z,53.00
2022-08-12T23:48:00.373Z,53.00
2022-08-12T23:50:34.471Z,52.90
2022-08-12T23:53:06.390Z,53.00
2022-08-12T23:55:45.614Z,53.00
2022-08-12T23:58:17.345Z,53.00
